createdAt,value
2023-04-16T00:00:31.668Z,2.500000000000057
2023-04-16T00:01:31.696Z,2.388888888888914
2023-04-16T00:02:31.776Z,2.388888888888914
2023-04-16T00:03:31.819Z,2.388888888888914
2023-04-16T00:04:31.779Z,2.388888888888914
2023-04-16T00:05:31.745Z,2.388888888888914
2023-04-16T00:06:31.642Z,2.388888888888914
2023-04-16T00:07:31.659Z,2.388888888888914
2023-04-16T00:08:31.663Z,2.2777777777778283
2023-04-16T00:09:31.690Z,2.2777777777778283
2023-04-16T00:10:31.673Z,2.2777777777778283
2023-04-16T00:11:31.668Z,2.2777777777778283
2023-04-16T00:12:31.696Z,2.2777777777778283
2023-04-16T00:13:31.662Z,2.2777777777778283
2023-04-16T00:14:31.642Z,2.2777777777778283
2023-04-16T00:15:31.661Z,2.2777777777778283
2023-04-16T00:16:31.658Z,2.2777777777778283
2023-04-16T00:17:31.732Z,2.2777777777778283
2023-04-16T00:18:31.624Z,2.2777777777778283
2023-04-16T00:19:31.734Z,2.2222222222222854
2023-04-16T00:20:31.640Z,2.2222222222222854
2023-04-16T00:21:31.673Z,2.2222222222222854
2023-04-16T00:22:31.653Z,2.2222222222222854
2023-04-16T00:23:31.677Z,2.2222222222222854
2023-04-16T00:24:31.676Z,2.2222222222222854
2023-04-16T00:25:31.650Z,2.2222222222222854
2023-04-16T00:26:31.647Z,2.1111111111111427
2023-04-16T00:27:31.662Z,2.1111111111111427
2023-04-16T00:28:31.656Z,2.1111111111111427
2023-04-16T00:29:31.663Z,2.1111111111111427
2023-04-16T00:30:31.670Z,2.1111111111111427
2023-04-16T00:31:31.700Z,2.1111111111111427
2023-04-16T00:32:31.680Z,2.000000000000057
2023-04-16T00:33:31.633Z,2.000000000000057
2023-04-16T00:34:31.649Z,2.000000000000057
2023-04-16T00:35:31.639Z,2.000000000000057
2023-04-16T00:36:31.707Z,2.000000000000057
2023-04-16T00:37:31.651Z,2.000000000000057
2023-04-16T00:38:31.633Z,2.000000000000057
2023-04-16T00:39:31.632Z,2.000000000000057
2023-04-16T00:40:31.691Z,2.000000000000057
2023-04-16T00:41:31.707Z,2.000000000000057
2023-04-16T00:42:31.634Z,2.000000000000057
2023-04-16T00:43:31.702Z,2.000000000000057
2023-04-16T00:44:31.659Z,2.000000000000057
2023-04-16T00:45:31.649Z,2.000000000000057
2023-04-16T00:46:31.670Z,2.000000000000057
2023-04-16T00:47:31.765Z,2.000000000000057
2023-04-16T00:48:31.669Z,2.000000000000057
2023-04-16T00:49:31.676Z,2.000000000000057
2023-04-16T00:50:31.705Z,2.000000000000057
2023-04-16T00:51:31.668Z,1.8888888888889142
2023-04-16T00:52:31.672Z,1.8888888888889142
2023-04-16T00:53:31.636Z,1.8888888888889142
2023-04-16T00:54:31.618Z,1.8888888888889142
2023-04-16T00:55:31.656Z,1.8888888888889142
2023-04-16T00:56:31.642Z,1.8888888888889142
2023-04-16T00:57:31.672Z,1.7777777777778283
2023-04-16T00:58:31.641Z,1.7777777777778283
2023-04-16T00:59:31.638Z,1.7777777777778283
2023-04-16T01:00:31.692Z,1.8888888888889142
2023-04-16T01:01:31.731Z,1.8888888888889142
2023-04-16T01:02:31.760Z,1.8888888888889142
2023-04-16T01:03:31.847Z,1.7777777777778283
2023-04-16T01:04:31.728Z,1.7777777777778283
2023-04-16T01:05:31.696Z,1.7777777777778283
2023-04-16T01:06:31.658Z,1.7777777777778283
2023-04-16T01:07:31.642Z,1.7777777777778283
2023-04-16T01:08:31.659Z,1.7777777777778283
2023-04-16T01:09:31.628Z,1.7222222222222854
2023-04-16T01:10:31.627Z,1.7777777777778283
2023-04-16T01:11:31.712Z,1.7777777777778283
2023-04-16T01:12:31.687Z,1.7777777777778283
2023-04-16T01:13:31.646Z,1.7777777777778283
2023-04-16T01:14:31.628Z,1.7777777777778283
2023-04-16T01:15:31.662Z,1.7777777777778283
2023-04-16T01:16:31.645Z,1.7777777777778283
2023-04-16T01:17:31.675Z,1.7222222222222854
2023-04-16T01:18:31.644Z,1.7222222222222854
2023-04-16T01:19:31.658Z,1.7222222222222854
2023-04-16T01:20:31.659Z,1.7222222222222854
2023-04-16T01:21:31.684Z,1.7222222222222854
2023-04-16T01:22:31.660Z,1.7222222222222854
2023-04-16T01:23:31.637Z,1.7222222222222854
2023-04-16T01:24:31.643Z,1.7222222222222854
2023-04-16T01:25:31.666Z,1.7222222222222854
2023-04-16T01:26:31.697Z,1.6111111111111427
2023-04-16T01:27:31.627Z,1.6111111111111427
2023-04-16T01:28:31.658Z,1.6111111111111427
2023-04-16T01:29:31.681Z,1.5000000000000568
2023-04-16T01:30:31.653Z,1.5000000000000568
2023-04-16T01:31:31.679Z,1.5000000000000568
2023-04-16T01:32:31.708Z,1.5000000000000568
2023-04-16T01:33:31.697Z,1.5000000000000568
2023-04-16T01:34:31.664Z,1.5000000000000568
2023-04-16T01:35:31.664Z,1.5000000000000568
2023-04-16T01:36:31.654Z,1.5000000000000568
2023-04-16T01:37:31.662Z,1.5000000000000568
2023-04-16T01:38:31.650Z,1.5000000000000568
2023-04-16T01:39:31.618Z,1.5000000000000568
2023-04-16T01:40:31.763Z,1.5000000000000568
2023-04-16T01:41:31.801Z,1.3888888888889142
2023-04-16T01:42:31.806Z,1.3888888888889142
2023-04-16T01:43:31.874Z,1.3888888888889142
2023-04-16T01:44:31.804Z,1.3888888888889142
2023-04-16T01:45:31.865Z,1.3888888888889142
2023-04-16T01:46:31.899Z,1.3888888888889142
2023-04-16T01:47:31.805Z,1.3888888888889142
2023-04-16T01:48:31.780Z,1.3888888888889142
2023-04-16T01:49:31.760Z,1.3888888888889142
2023-04-16T01:50:31.777Z,1.3888888888889142
2023-04-16T01:51:31.699Z,1.3888888888889142
2023-04-16T01:52:31.790Z,1.3888888888889142
2023-04-16T01:53:31.854Z,1.3888888888889142
2023-04-16T01:54:31.762Z,1.3888888888889142
2023-04-16T01:55:31.779Z,1.3888888888889142
2023-04-16T01:56:31.754Z,1.3888888888889142
2023-04-16T01:57:31.653Z,1.3888888888889142
2023-04-16T01:58:31.659Z,1.3888888888889142
2023-04-16T01:59:31.645Z,1.3888888888889142
2023-04-16T02:00:31.657Z,1.3888888888889142
2023-04-16T02:01:31.955Z,1.3888888888889142
2023-04-16T02:02:31.757Z,1.2777777777778283
2023-04-16T02:03:31.827Z,1.2777777777778283
2023-04-16T02:04:31.611Z,1.2777777777778283
2023-04-16T02:05:31.670Z,1.2777777777778283
2023-04-16T02:06:31.651Z,1.2777777777778283
2023-04-16T02:07:31.645Z,1.2777777777778283
2023-04-16T02:08:31.611Z,1.2777777777778283
2023-04-16T02:09:31.660Z,1.2777777777778283
2023-04-16T02:10:31.658Z,1.2777777777778283
2023-04-16T02:11:31.740Z,1.2777777777778283
2023-04-16T02:12:31.647Z,1.2777777777778283
2023-04-16T02:13:31.666Z,1.2777777777778283
2023-04-16T02:14:31.635Z,1.2777777777778283
2023-04-16T02:15:31.634Z,1.2222222222222854
2023-04-16T02:16:31.715Z,1.2222222222222854
2023-04-16T02:17:31.677Z,1.2222222222222854
2023-04-16T02:18:31.650Z,1.2222222222222854
2023-04-16T02:19:31.637Z,1.2222222222222854
2023-04-16T02:20:31.635Z,1.2222222222222854
2023-04-16T02:21:31.665Z,1.2222222222222854
2023-04-16T02:22:31.653Z,1.2222222222222854
2023-04-16T02:23:31.646Z,1.2222222222222854
2023-04-16T02:24:31.653Z,1.1111111111111427
2023-04-16T02:25:31.620Z,1.1111111111111427
2023-04-16T02:26:31.625Z,1.1111111111111427
2023-04-16T02:27:31.636Z,1.1111111111111427
2023-04-16T02:28:31.644Z,1.1111111111111427
2023-04-16T02:29:31.644Z,1.1111111111111427
2023-04-16T02:30:31.649Z,1.1111111111111427
2023-04-16T02:31:31.634Z,1.2222222222222854
2023-04-16T02:32:31.674Z,1.2222222222222854
2023-04-16T02:33:31.713Z,1.1111111111111427
2023-04-16T02:34:31.638Z,1.1111111111111427
2023-04-16T02:35:31.644Z,1.1111111111111427
2023-04-16T02:36:31.655Z,1.1111111111111427
2023-04-16T02:37:31.643Z,1.0000000000000568
2023-04-16T02:38:31.622Z,1.0000000000000568
2023-04-16T02:39:31.624Z,1.0000000000000568
2023-04-16T02:40:31.660Z,0.888888888888971
2023-04-16T02:41:31.628Z,0.888888888888971
2023-04-16T02:42:31.648Z,0.888888888888971
2023-04-16T02:43:31.615Z,0.888888888888971
2023-04-16T02:44:31.656Z,0.888888888888971
2023-04-16T02:45:31.738Z,0.7777777777778283
2023-04-16T02:46:31.702Z,0.7777777777778283
2023-04-16T02:47:31.638Z,0.7777777777778283
2023-04-16T02:48:31.686Z,0.7777777777778283
2023-04-16T02:49:31.625Z,0.7222222222222854
2023-04-16T02:50:31.631Z,0.7222222222222854
2023-04-16T02:51:31.657Z,0.7222222222222854
2023-04-16T02:52:31.668Z,0.7222222222222854
2023-04-16T02:53:31.734Z,0.7222222222222854
2023-04-16T02:54:31.650Z,0.7222222222222854
2023-04-16T02:55:31.626Z,0.7222222222222854
2023-04-16T02:56:31.662Z,0.7222222222222854
2023-04-16T02:57:31.635Z,0.6111111111111427
2023-04-16T02:58:31.628Z,0.6111111111111427
2023-04-16T02:59:31.642Z,0.6111111111111427
2023-04-16T03:00:31.637Z,0.6111111111111427
2023-04-16T03:01:31.701Z,0.6111111111111427
2023-04-16T03:02:31.734Z,0.6111111111111427
2023-04-16T03:03:31.618Z,0.6111111111111427
2023-04-16T03:04:31.727Z,0.6111111111111427
2023-04-16T03:05:31.629Z,0.6111111111111427
2023-04-16T03:06:31.675Z,0.6111111111111427
2023-04-16T03:07:31.612Z,0.6111111111111427
2023-04-16T03:08:31.669Z,0.6111111111111427
2023-04-16T03:09:31.632Z,0.6111111111111427
2023-04-16T03:10:31.765Z,0.5000000000000568
2023-04-16T03:11:31.642Z,0.5000000000000568
2023-04-16T03:12:31.658Z,0.5000000000000568
2023-04-16T03:13:31.651Z,0.5000000000000568
2023-04-16T03:14:31.669Z,0.5000000000000568
2023-04-16T03:15:31.684Z,0.5000000000000568
2023-04-16T03:16:31.632Z,0.5000000000000568
2023-04-16T03:17:31.643Z,0.5000000000000568
2023-04-16T03:18:31.642Z,0.38888888888891415
2023-04-16T03:19:31.612Z,0.38888888888891415
2023-04-16T03:20:31.629Z,0.38888888888891415
2023-04-16T03:21:31.676Z,0.38888888888891415
2023-04-16T03:22:31.752Z,0.38888888888891415
2023-04-16T03:23:31.665Z,0.38888888888891415
2023-04-16T03:24:31.641Z,0.38888888888891415
2023-04-16T03:25:31.805Z,0.38888888888891415
2023-04-16T03:26:31.659Z,0.38888888888891415
2023-04-16T03:27:31.772Z,0.38888888888891415
2023-04-16T03:28:31.636Z,0.38888888888891415
2023-04-16T03:29:31.743Z,0.38888888888891415
2023-04-16T03:30:31.743Z,0.38888888888891415
2023-04-16T03:31:31.833Z,0.38888888888891415
2023-04-16T03:32:31.798Z,0.38888888888891415
2023-04-16T03:33:31.637Z,0.38888888888891415
2023-04-16T03:34:31.624Z,0.38888888888891415
2023-04-16T03:35:31.659Z,0.38888888888891415
2023-04-16T03:36:31.700Z,0.38888888888891415
2023-04-16T03:37:31.801Z,0.38888888888891415
2023-04-16T03:38:31.759Z,0.38888888888891415
2023-04-16T03:39:31.696Z,0.38888888888891415
2023-04-16T03:40:31.750Z,0.2777777777778283
2023-04-16T03:41:31.665Z,0.2777777777778283
2023-04-16T03:42:31.711Z,0.2777777777778283
2023-04-16T03:43:31.751Z,0.2777777777778283
2023-04-16T03:44:31.664Z,0.2777777777778283
2023-04-16T03:45:31.779Z,0.2777777777778283
2023-04-16T03:46:31.824Z,0.2777777777778283
2023-04-16T03:47:31.821Z,0.2777777777778283
2023-04-16T03:48:31.714Z,0.2777777777778283
2023-04-16T03:49:31.731Z,0.2777777777778283
2023-04-16T03:50:31.732Z,0.2777777777778283
2023-04-16T03:51:31.783Z,0.2777777777778283
2023-04-16T03:52:31.630Z,0.2777777777778283
2023-04-16T03:53:31.641Z,0.2777777777778283
2023-04-16T03:54:31.637Z,0.2777777777778283
2023-04-16T03:55:31.609Z,0.2777777777778283
2023-04-16T03:56:31.606Z,0.2777777777778283
2023-04-16T03:57:31.621Z,0.2777777777778283
2023-04-16T03:58:31.634Z,0.2777777777778283
2023-04-16T03:59:31.637Z,0.2777777777778283
2023-04-16T04:00:31.628Z,0.2777777777778283
2023-04-16T04:01:31.640Z,0.2777777777778283
2023-04-16T04:02:31.751Z,0.2777777777778283
2023-04-16T04:03:31.917Z,0.2777777777778283
2023-04-16T04:04:31.709Z,0.2777777777778283
2023-04-16T04:05:31.640Z,0.2777777777778283
2023-04-16T04:06:31.677Z,0.2777777777778283
2023-04-16T04:07:31.670Z,0.2777777777778283
2023-04-16T04:08:31.612Z,0.2777777777778283
2023-04-16T04:09:31.621Z,0.2777777777778283
2023-04-16T04:10:31.640Z,0.2777777777778283
2023-04-16T04:11:31.640Z,0.2777777777778283
2023-04-16T04:12:31.668Z,0.38888888888891415
2023-04-16T04:13:31.634Z,0.38888888888891415
2023-04-16T04:14:31.641Z,0.38888888888891415
2023-04-16T04:15:31.663Z,0.38888888888891415
2023-04-16T04:16:31.733Z,0.38888888888891415
2023-04-16T04:17:31.703Z,0.38888888888891415
2023-04-16T04:18:31.595Z,0.38888888888891415
2023-04-16T04:19:31.625Z,0.38888888888891415
2023-04-16T04:20:31.629Z,0.38888888888891415
2023-04-16T04:21:31.642Z,0.38888888888891415
2023-04-16T04:22:31.631Z,0.38888888888891415
2023-04-16T04:23:31.643Z,0.38888888888891415
2023-04-16T04:24:31.643Z,0.38888888888891415
2023-04-16T04:25:31.652Z,0.38888888888891415
2023-04-16T04:26:31.668Z,0.38888888888891415
2023-04-16T04:27:31.642Z,0.38888888888891415
2023-04-16T04:28:31.657Z,0.38888888888891415
2023-04-16T04:29:31.682Z,0.38888888888891415
2023-04-16T04:30:31.629Z,0.5000000000000568
2023-04-16T04:31:31.655Z,0.5000000000000568
2023-04-16T04:32:31.649Z,0.5000000000000568
2023-04-16T04:33:31.654Z,0.5000000000000568
2023-04-16T04:34:31.643Z,0.6111111111111427
2023-04-16T04:35:31.620Z,0.6111111111111427
2023-04-16T04:36:31.624Z,0.6111111111111427
2023-04-16T04:37:31.622Z,0.6111111111111427
2023-04-16T04:38:31.652Z,0.6111111111111427
2023-04-16T04:39:31.603Z,0.6111111111111427
2023-04-16T04:40:31.652Z,0.6111111111111427
2023-04-16T04:41:31.613Z,0.6111111111111427
2023-04-16T04:42:31.619Z,0.6111111111111427
2023-04-16T04:43:31.716Z,0.6111111111111427
2023-04-16T04:44:31.700Z,0.6111111111111427
2023-04-16T04:45:32.209Z,0.6111111111111427
2023-04-16T04:46:31.617Z,0.7222222222222854
2023-04-16T04:47:31.625Z,0.7222222222222854
2023-04-16T04:48:31.648Z,0.7222222222222854
2023-04-16T04:49:31.661Z,0.7777777777778283
2023-04-16T04:50:31.634Z,0.7777777777778283
2023-04-16T04:51:31.613Z,0.7777777777778283
2023-04-16T04:52:31.641Z,0.7777777777778283
2023-04-16T04:53:31.637Z,0.888888888888971
2023-04-16T04:54:31.630Z,0.888888888888971
2023-04-16T04:55:31.674Z,1.0000000000000568
2023-04-16T04:56:31.633Z,1.1111111111111427
2023-04-16T04:57:31.635Z,1.2222222222222854
2023-04-16T04:58:31.629Z,1.2777777777778283
2023-04-16T04:59:31.618Z,1.3888888888889142
2023-04-16T05:00:31.672Z,1.5000000000000568
2023-04-16T05:01:31.661Z,1.8888888888889142
2023-04-16T05:02:31.691Z,2.1111111111111427
2023-04-16T05:03:31.767Z,2.2777777777778283
2023-04-16T05:04:31.635Z,2.388888888888914
2023-04-16T05:05:31.657Z,2.500000000000057
2023-04-16T05:06:31.669Z,2.500000000000057
2023-04-16T05:07:31.617Z,2.500000000000057
2023-04-16T05:08:31.646Z,2.500000000000057
2023-04-16T05:09:31.635Z,2.500000000000057
2023-04-16T05:10:31.645Z,2.500000000000057
2023-04-16T05:11:31.619Z,2.500000000000057
2023-04-16T05:12:31.647Z,2.500000000000057
2023-04-16T05:13:31.619Z,2.500000000000057
2023-04-16T05:14:31.622Z,2.500000000000057
2023-04-16T05:15:31.618Z,2.6111111111111427
2023-04-16T05:16:31.650Z,2.7222222222222285
2023-04-16T05:17:31.731Z,2.7777777777778283
2023-04-16T05:18:31.612Z,2.7777777777778283
2023-04-16T05:19:31.597Z,2.7777777777778283
2023-04-16T05:20:31.675Z,2.6111111111111427
2023-04-16T05:21:31.639Z,2.500000000000057
2023-04-16T05:22:31.611Z,2.388888888888914
2023-04-16T05:23:31.616Z,2.388888888888914
2023-04-16T05:24:31.631Z,2.500000000000057
2023-04-16T05:25:31.611Z,2.6111111111111427
2023-04-16T05:26:31.625Z,2.6111111111111427
2023-04-16T05:27:31.624Z,2.6111111111111427
2023-04-16T05:28:31.663Z,2.6111111111111427
2023-04-16T05:29:31.623Z,2.6111111111111427
2023-04-16T05:30:31.665Z,2.7777777777778283
2023-04-16T05:31:31.615Z,2.7777777777778283
2023-04-16T05:32:31.631Z,2.7777777777778283
2023-04-16T05:33:31.629Z,2.7222222222222285
2023-04-16T05:34:31.693Z,2.7222222222222285
2023-04-16T05:35:31.610Z,2.7222222222222285
2023-04-16T05:36:31.626Z,3.000000000000057
2023-04-16T05:37:31.630Z,3.1111111111111427
2023-04-16T05:38:31.630Z,3.1111111111111427
2023-04-16T05:39:31.595Z,3.1111111111111427
2023-04-16T05:40:31.611Z,3.000000000000057
2023-04-16T05:41:31.602Z,3.000000000000057
2023-04-16T05:42:31.621Z,3.000000000000057
2023-04-16T05:43:31.594Z,3.000000000000057
2023-04-16T05:44:31.640Z,3.1111111111111427
2023-04-16T05:45:31.609Z,3.2222222222222854
2023-04-16T05:46:31.709Z,3.2777777777778283
2023-04-16T05:47:31.660Z,3.388888888888971
2023-04-16T05:48:31.637Z,3.6111111111111427
2023-04-16T05:49:31.607Z,3.6111111111111427
2023-04-16T05:50:31.594Z,3.6111111111111427
2023-04-16T05:51:31.624Z,3.500000000000057
2023-04-16T05:52:31.605Z,3.388888888888971
2023-04-16T05:53:31.608Z,3.388888888888971
2023-04-16T05:54:31.605Z,3.388888888888971
2023-04-16T05:55:31.614Z,3.388888888888971
2023-04-16T05:56:31.673Z,3.500000000000057
2023-04-16T05:57:31.623Z,3.500000000000057
2023-04-16T05:58:31.596Z,3.500000000000057
2023-04-16T05:59:31.623Z,3.500000000000057
2023-04-16T06:00:31.655Z,3.500000000000057
2023-04-16T06:01:32.816Z,3.500000000000057
2023-04-16T06:02:31.772Z,3.6111111111111427
2023-04-16T06:03:31.749Z,3.6111111111111427
2023-04-16T06:04:31.640Z,3.7777777777778283
2023-04-16T06:05:31.637Z,3.7777777777778283
2023-04-16T06:06:31.621Z,3.7777777777778283
2023-04-16T06:07:31.655Z,3.7777777777778283
2023-04-16T06:08:31.650Z,3.888888888888914
2023-04-16T06:09:31.623Z,3.7777777777778283
2023-04-16T06:10:31.612Z,3.7777777777778283
2023-04-16T06:11:31.632Z,3.7777777777778283
2023-04-16T06:12:31.660Z,3.888888888888914
2023-04-16T06:13:31.626Z,4.000000000000057
2023-04-16T06:14:31.627Z,4.000000000000057
2023-04-16T06:15:31.665Z,4.000000000000057
2023-04-16T06:16:31.799Z,3.888888888888914
2023-04-16T06:17:31.642Z,3.888888888888914
2023-04-16T06:18:31.620Z,4.000000000000057
2023-04-16T06:19:31.586Z,4.000000000000057
2023-04-16T06:20:31.635Z,4.000000000000057
2023-04-16T06:21:31.632Z,4.000000000000057
2023-04-16T06:22:31.611Z,3.888888888888914
2023-04-16T06:23:31.607Z,3.888888888888914
2023-04-16T06:24:31.624Z,3.888888888888914
2023-04-16T06:25:31.639Z,3.7777777777778283
2023-04-16T06:26:31.627Z,3.7777777777778283
2023-04-16T06:27:31.614Z,3.7777777777778283
2023-04-16T06:28:31.623Z,4.000000000000057
2023-04-16T06:29:40.702Z,4.000000000000057
2023-04-16T06:30:31.598Z,4.111111111111143
2023-04-16T06:31:31.631Z,4.111111111111143
2023-04-16T06:32:31.637Z,4.277777777777828
2023-04-16T06:33:31.631Z,4.277777777777828
2023-04-16T06:34:31.637Z,4.277777777777828
2023-04-16T06:35:31.606Z,4.388888888888914
2023-04-16T06:36:31.635Z,4.388888888888914
2023-04-16T06:37:31.631Z,4.388888888888914
2023-04-16T06:38:31.580Z,4.388888888888914
2023-04-16T06:39:31.591Z,4.388888888888914
2023-04-16T06:40:31.605Z,4.388888888888914
2023-04-16T06:41:31.642Z,4.222222222222285
2023-04-16T06:42:31.613Z,4.111111111111143
2023-04-16T06:43:31.611Z,4.222222222222285
2023-04-16T06:44:31.615Z,4.277777777777828
2023-04-16T06:45:31.613Z,4.611111111111143
2023-04-16T06:46:31.648Z,4.722222222222285
2023-04-16T06:47:31.630Z,4.777777777777828
2023-04-16T06:48:31.615Z,4.777777777777828
2023-04-16T06:49:31.627Z,4.722222222222285
2023-04-16T06:50:31.586Z,4.722222222222285
2023-04-16T06:51:31.605Z,4.722222222222285
2023-04-16T06:52:31.613Z,4.722222222222285
2023-04-16T06:53:31.632Z,4.888888888888914
2023-04-16T06:54:31.591Z,5.000000000000057
2023-04-16T06:55:31.628Z,5.000000000000057
2023-04-16T06:56:31.697Z,4.888888888888914
2023-04-16T06:57:31.641Z,4.888888888888914
2023-04-16T06:58:31.628Z,4.888888888888914
2023-04-16T06:59:31.617Z,4.888888888888914
2023-04-16T07:00:31.672Z,4.777777777777828
2023-04-16T07:01:31.817Z,4.777777777777828
2023-04-16T07:02:31.752Z,4.888888888888914
2023-04-16T07:03:31.723Z,5.111111111111143
2023-04-16T07:04:31.581Z,5.277777777777828
2023-04-16T07:05:31.615Z,5.500000000000057
2023-04-16T07:06:31.599Z,5.500000000000057
2023-04-16T07:07:31.613Z,5.500000000000057
2023-04-16T07:08:31.642Z,5.388888888888914
2023-04-16T07:09:31.636Z,5.388888888888914
2023-04-16T07:10:31.581Z,5.611111111111143
2023-04-16T07:11:31.608Z,5.611111111111143
2023-04-16T07:12:31.604Z,5.722222222222285
2023-04-16T07:13:31.602Z,5.722222222222285
2023-04-16T07:14:31.592Z,5.611111111111143
2023-04-16T07:15:31.611Z,5.611111111111143
2023-04-16T07:16:31.661Z,5.722222222222285
2023-04-16T07:17:31.649Z,5.722222222222285
2023-04-16T07:18:31.641Z,5.777777777777828
2023-04-16T07:19:31.650Z,5.777777777777828
2023-04-16T07:20:31.673Z,5.777777777777828
2023-04-16T07:21:31.672Z,5.888888888888971
2023-04-16T07:22:31.608Z,5.888888888888971
2023-04-16T07:23:31.604Z,6.000000000000057
2023-04-16T07:24:31.637Z,6.000000000000057
2023-04-16T07:25:31.648Z,6.000000000000057
2023-04-16T07:26:31.656Z,6.277777777777828
2023-04-16T07:27:31.638Z,6.500000000000057
2023-04-16T07:28:31.620Z,6.500000000000057
2023-04-16T07:29:31.592Z,6.500000000000057
2023-04-16T07:30:31.621Z,6.388888888888914
2023-04-16T07:31:31.759Z,6.500000000000057
2023-04-16T07:32:31.642Z,6.500000000000057
2023-04-16T07:33:31.606Z,6.611111111111143
2023-04-16T07:34:31.616Z,6.611111111111143
2023-04-16T07:35:31.586Z,6.722222222222285
2023-04-16T07:36:31.618Z,6.777777777777828
2023-04-16T07:37:31.609Z,6.888888888888914
2023-04-16T07:38:31.629Z,7.000000000000057
2023-04-16T07:39:31.690Z,7.000000000000057
2023-04-16T07:40:31.620Z,6.888888888888914
2023-04-16T07:41:31.600Z,6.888888888888914
2023-04-16T07:42:31.662Z,6.777777777777828
2023-04-16T07:43:31.592Z,6.500000000000057
2023-04-16T07:44:31.590Z,6.500000000000057
2023-04-16T07:45:31.606Z,6.611111111111143
2023-04-16T07:46:43.594Z,6.888888888888914
2023-04-16T07:47:31.695Z,7.000000000000057
2023-04-16T07:48:31.582Z,7.277777777777828
2023-04-16T07:49:31.609Z,7.388888888888914
2023-04-16T07:50:31.629Z,7.500000000000057
2023-04-16T07:51:31.620Z,7.500000000000057
2023-04-16T07:52:31.618Z,7.388888888888914
2023-04-16T07:53:31.622Z,7.000000000000057
2023-04-16T07:54:31.667Z,7.000000000000057
2023-04-16T07:55:31.616Z,7.000000000000057
2023-04-16T07:56:31.640Z,7.222222222222285
2023-04-16T07:57:31.595Z,7.500000000000057
2023-04-16T07:58:31.600Z,7.7222222222222285
2023-04-16T07:59:31.617Z,7.777777777777828
2023-04-16T08:00:31.612Z,8.111111111111143
2023-04-16T08:01:31.620Z,8.111111111111143
2023-04-16T08:02:31.802Z,8.222222222222285
2023-04-16T08:03:31.823Z,8.500000000000057
2023-04-16T08:04:31.762Z,8.611111111111143
2023-04-16T08:05:31.589Z,8.722222222222285
2023-04-16T08:06:31.644Z,8.722222222222285
2023-04-16T08:07:33.924Z,8.722222222222285
2023-04-16T08:08:31.615Z,8.611111111111143
2023-04-16T08:09:31.614Z,8.611111111111143
2023-04-16T08:10:31.619Z,8.611111111111143
2023-04-16T08:11:31.585Z,8.611111111111143
2023-04-16T08:12:31.599Z,8.722222222222285
2023-04-16T08:13:33.527Z,8.777777777777828
2023-04-16T08:14:31.619Z,8.777777777777828
2023-04-16T08:15:31.679Z,8.722222222222285
2023-04-16T08:16:31.622Z,8.722222222222285
2023-04-16T08:17:31.632Z,8.777777777777828
2023-04-16T08:18:31.643Z,9.000000000000057
2023-04-16T08:19:31.604Z,9.000000000000057
2023-04-16T08:20:31.594Z,8.888888888888914
2023-04-16T08:21:31.603Z,8.888888888888914
2023-04-16T08:22:31.626Z,8.777777777777828
2023-04-16T08:23:31.580Z,8.777777777777828
2023-04-16T08:24:31.604Z,9.000000000000057
2023-04-16T08:25:31.599Z,9.000000000000057
2023-04-16T08:26:31.595Z,9.222222222222285
2023-04-16T08:27:31.603Z,9.222222222222285
2023-04-16T08:28:31.599Z,9.277777777777828
2023-04-16T08:29:31.605Z,9.277777777777828
2023-04-16T08:30:31.600Z,9.222222222222285
2023-04-16T08:31:31.868Z,9.222222222222285
2023-04-16T08:32:31.612Z,9.222222222222285
2023-04-16T08:33:31.616Z,9.611111111111143
2023-04-16T08:34:31.586Z,9.611111111111143
2023-04-16T08:35:31.612Z,9.611111111111143
2023-04-16T08:36:31.666Z,9.500000000000057
2023-04-16T08:37:31.595Z,9.388888888888914
2023-04-16T08:38:31.584Z,9.000000000000057
2023-04-16T08:39:31.614Z,9.000000000000057
2023-04-16T08:40:31.631Z,9.000000000000057
2023-04-16T08:41:31.610Z,9.222222222222285
2023-04-16T08:42:31.610Z,9.222222222222285
2023-04-16T08:43:31.645Z,9.222222222222285
2023-04-16T08:44:31.597Z,9.277777777777828
2023-04-16T08:45:31.597Z,9.722222222222285
2023-04-16T08:46:31.669Z,9.777777777777828
2023-04-16T08:47:31.662Z,9.777777777777828
2023-04-16T08:48:31.587Z,9.777777777777828
2023-04-16T08:49:31.599Z,9.722222222222285
2023-04-16T08:50:31.598Z,9.722222222222285
2023-04-16T08:51:31.605Z,9.888888888888914
2023-04-16T08:52:31.620Z,10.000000000000057
2023-04-16T08:53:31.601Z,10.111111111111143
2023-04-16T08:54:31.607Z,10.388888888888914
2023-04-16T08:55:31.626Z,10.611111111111143
2023-04-16T08:56:31.605Z,10.611111111111143
2023-04-16T08:57:31.612Z,10.611111111111143
2023-04-16T08:58:31.619Z,9.888888888888914
2023-04-16T08:59:31.612Z,9.388888888888914
2023-04-16T09:00:31.583Z,9.388888888888914
2023-04-16T09:01:31.631Z,9.388888888888914
2023-04-16T09:02:31.763Z,9.611111111111143
2023-04-16T09:03:33.375Z,9.611111111111143
2023-04-16T09:04:31.640Z,10.000000000000057
2023-04-16T09:05:31.615Z,10.222222222222229
2023-04-16T09:06:31.614Z,10.222222222222229
2023-04-16T09:07:31.649Z,10.111111111111143
2023-04-16T09:08:31.568Z,10.111111111111143